createdAt,value
2019-05-14T00:00:44.860Z,8.30
2019-05-14T00:03:11.342Z,8.20
2019-05-14T00:05:37.780Z,8.20
2019-05-14T00:08:03.926Z,8.20
2019-05-14T00:10:31.995Z,8.20
2019-05-14T00:12:57.979Z,8.20
2019-05-14T00:15:24.214Z,8.10
2019-05-14T00:17:52.277Z,8.10
2019-05-14T00:20:18.662Z,8.00
2019-05-14T00:22:44.811Z,8.00
2019-05-14T00:25:11.721Z,8.00
2019-05-14T00:27:37.977Z,7.90
2019-05-14T00:30:05.415Z,7.90
2019-05-14T00:32:31.837Z,8.00
2019-05-14T00:34:57.947Z,7.90
2019-05-14T00:37:24.007Z,7.90
2019-05-14T00:39:52.125Z,7.90
2019-05-14T00:42:18.491Z,7.90
2019-05-14T00:44:54.326Z,7.90
2019-05-14T00:47:12.623Z,7.90
2019-05-14T00:49:38.742Z,7.90
2019-05-14T00:52:05.037Z,8.00
2019-05-14T00:54:32.200Z,7.90
2019-05-14T00:57:01.341Z,7.90
2019-05-14T00:59:26.982Z,7.90
2019-05-14T01:01:53.119Z,7.80
2019-05-14T01:04:22.072Z,7.70
2019-05-14T01:06:47.790Z,7.60
2019-05-14T01:09:13.911Z,7.60
2019-05-14T01:11:41.985Z,7.50
2019-05-14T01:14:08.028Z,7.40
2019-05-14T01:16:34.453Z,7.30
2019-05-14T01:19:02.043Z,7.30
2019-05-14T01:21:33.075Z,7.30
2019-05-14T01:23:59.177Z,7.20
2019-05-14T01:26:25.401Z,7.10
2019-05-14T01:28:51.601Z,7.00
2019-05-14T01:31:17.847Z,7.00
2019-05-14T01:33:43.909Z,7.00
2019-05-14T01:36:12.200Z,6.90
2019-05-14T01:38:38.122Z,6.80
2019-05-14T01:41:04.255Z,6.80
2019-05-14T01:43:31.498Z,6.80
2019-05-14T01:45:57.879Z,6.70
2019-05-14T01:48:23.997Z,6.70
2019-05-14T01:50:52.088Z,6.60
2019-05-14T01:53:18.059Z,6.50
2019-05-14T01:55:44.157Z,6.40
2019-05-14T01:58:11.529Z,6.40
2019-05-14T02:00:37.779Z,6.40
2019-05-14T02:03:03.841Z,6.30
2019-05-14T02:05:31.228Z,6.30
2019-05-14T02:07:57.547Z,6.30
2019-05-14T02:10:23.820Z,6.20
2019-05-14T02:12:51.506Z,6.20
2019-05-14T02:15:18.095Z,6.20
2019-05-14T02:17:44.180Z,6.10
2019-05-14T02:20:12.502Z,6.10
2019-05-14T02:22:38.427Z,6.00
2019-05-14T02:25:06.007Z,6.00
2019-05-14T02:27:34.862Z,6.00
2019-05-14T02:30:01.737Z,5.90
2019-05-14T02:32:29.777Z,5.80
2019-05-14T02:34:58.830Z,5.80
2019-05-14T02:37:24.256Z,5.70
2019-05-14T02:39:50.502Z,5.60
2019-05-14T02:42:19.431Z,5.60
2019-05-14T02:44:44.659Z,5.60
2019-05-14T02:47:10.911Z,5.60
2019-05-14T02:49:39.697Z,5.60
2019-05-14T02:52:05.035Z,5.60
2019-05-14T02:54:31.067Z,5.60
2019-05-14T02:56:59.875Z,5.50
2019-05-14T02:59:25.394Z,5.50
2019-05-14T03:01:51.449Z,5.50
2019-05-14T03:04:19.748Z,5.50
2019-05-14T03:06:45.928Z,5.40
2019-05-14T03:09:12.123Z,5.30
2019-05-14T03:11:40.373Z,5.20
2019-05-14T03:14:08.950Z,5.10
2019-05-14T03:16:35.972Z,5.10
2019-05-14T03:19:02.535Z,5.10
2019-05-14T03:21:30.371Z,5.00
2019-05-14T03:24:00.453Z,5.00
2019-05-14T03:26:24.707Z,4.90
2019-05-14T03:28:50.748Z,4.80
2019-05-14T03:31:21.839Z,4.70
2019-05-14T03:33:45.162Z,4.70
2019-05-14T03:36:17.817Z,4.70
2019-05-14T03:38:39.811Z,4.50
2019-05-14T03:43:40.809Z,4.40
2019-05-14T03:46:09.717Z,4.30
2019-05-14T03:48:34.891Z,4.30
2019-05-14T03:51:02.231Z,4.10
2019-05-14T03:53:29.554Z,4.10
2019-05-14T03:55:59.408Z,4.00
2019-05-14T03:58:24.462Z,4.00
2019-05-14T04:01:00.408Z,4.10
2019-05-14T04:03:25.247Z,4.10
2019-05-14T04:05:52.525Z,4.20
2019-05-14T04:08:21.369Z,4.20
2019-05-14T04:10:53.041Z,4.30
2019-05-14T04:13:19.595Z,4.40
2019-05-14T04:15:49.460Z,4.50
2019-05-14T04:18:18.512Z,4.60
2019-05-14T04:20:44.880Z,4.60
2019-05-14T04:23:14.165Z,4.60
2019-05-14T04:25:40.742Z,4.60
2019-05-14T04:28:19.102Z,4.60
2019-05-14T04:30:49.314Z,4.70
2019-05-14T04:33:19.352Z,4.80
2019-05-14T04:35:48.850Z,4.80
2019-05-14T04:38:13.878Z,4.80
2019-05-14T04:40:40.136Z,4.80
2019-05-14T04:43:09.973Z,4.80
2019-05-14T04:45:34.270Z,4.90
2019-05-14T04:48:00.477Z,4.90
2019-05-14T04:50:29.444Z,4.90
2019-05-14T04:52:54.955Z,4.90
2019-05-14T04:55:21.048Z,4.90
2019-05-14T04:57:50.135Z,4.90
2019-05-14T05:00:15.417Z,4.80
2019-05-14T05:02:41.609Z,4.80
2019-05-14T05:05:09.010Z,4.70
2019-05-14T05:07:35.450Z,4.80
2019-05-14T05:10:05.749Z,4.80
2019-05-14T05:12:31.871Z,4.90
2019-05-14T05:14:58.743Z,4.90
2019-05-14T05:17:40.223Z,4.80
2019-05-14T05:19:53.368Z,4.90
2019-05-14T05:22:19.689Z,5.00
2019-05-14T05:24:48.637Z,5.10
2019-05-14T05:27:14.851Z,5.20
2019-05-14T05:29:41.062Z,5.40
2019-05-14T05:32:08.681Z,5.50
2019-05-14T05:34:34.975Z,5.50
2019-05-14T05:37:01.202Z,5.60
2019-05-14T05:39:28.237Z,5.70
2019-05-14T05:41:54.867Z,5.70
2019-05-14T05:44:21.123Z,5.80
2019-05-14T05:46:49.337Z,5.80
2019-05-14T05:49:15.444Z,5.90
2019-05-14T05:51:41.509Z,5.90
2019-05-14T05:54:09.243Z,6.10
2019-05-14T05:56:35.479Z,6.20
2019-05-14T05:59:01.561Z,6.30
2019-05-14T06:01:42.136Z,6.40
2019-05-14T06:03:55.732Z,6.50
2019-05-14T06:06:22.409Z,6.70
2019-05-14T06:08:49.334Z,6.80
2019-05-14T06:11:15.592Z,6.90
2019-05-14T06:13:41.707Z,7.00
2019-05-14T06:16:09.462Z,7.10
2019-05-14T06:18:35.956Z,7.20
2019-05-14T06:21:02.067Z,7.30
2019-05-14T06:23:28.637Z,7.40
2019-05-14T06:25:55.016Z,7.50
2019-05-14T06:28:21.216Z,7.50
2019-05-14T06:30:48.363Z,7.70
2019-05-14T06:33:14.902Z,7.70
2019-05-14T06:35:41.095Z,7.80
2019-05-14T06:38:08.890Z,7.80
2019-05-14T06:40:35.105Z,7.80
2019-05-14T06:43:01.298Z,7.90
2019-05-14T06:45:29.170Z,8.00
2019-05-14T06:47:55.494Z,8.10
2019-05-14T06:50:21.650Z,8.10
2019-05-14T06:52:49.244Z,8.20
2019-05-14T06:55:17.906Z,8.30
2019-05-14T06:57:43.721Z,8.40
2019-05-14T07:00:11.169Z,8.40
2019-05-14T07:02:43.385Z,8.40
2019-05-14T07:05:08.180Z,8.40
2019-05-14T07:07:33.897Z,8.50
2019-05-14T07:10:00.018Z,8.60
2019-05-14T07:12:26.191Z,8.70
2019-05-14T07:14:52.268Z,8.80
2019-05-14T07:17:18.502Z,8.80
2019-05-14T07:19:48.768Z,8.80
2019-05-14T07:22:14.803Z,8.90
2019-05-14T07:24:41.050Z,8.90
2019-05-14T07:27:09.446Z,9.00
2019-05-14T07:29:35.133Z,9.10
2019-05-14T07:32:01.239Z,9.10
2019-05-14T07:34:28.311Z,9.20
2019-05-14T07:36:54.473Z,9.30
2019-05-14T07:39:20.553Z,9.30
2019-05-14T07:41:48.344Z,9.40
2019-05-14T07:44:14.767Z,9.40
2019-05-14T07:46:40.873Z,9.50
2019-05-14T07:49:09.334Z,9.60
2019-05-14T07:51:34.946Z,9.70
2019-05-14T07:54:01.219Z,9.80
2019-05-14T07:56:29.238Z,9.80
2019-05-14T07:58:58.095Z,9.90
2019-05-14T08:01:23.581Z,10.00
2019-05-14T08:03:49.649Z,10.10
2019-05-14T08:06:15.724Z,10.20
2019-05-14T08:08:41.910Z,10.20
2019-05-14T08:11:08.735Z,10.20
2019-05-14T08:13:35.049Z,10.20
2019-05-14T08:16:01.140Z,10.30
2019-05-14T08:18:29.021Z,10.30
2019-05-14T08:20:55.346Z,10.40
2019-05-14T08:23:21.437Z,10.50
2019-05-14T08:25:48.084Z,10.70
2019-05-14T08:28:14.389Z,10.80
2019-05-14T08:30:40.456Z,10.90
2019-05-14T08:33:08.795Z,11.10
2019-05-14T08:35:35.280Z,11.20
2019-05-14T08:38:07.709Z,11.40
2019-05-14T08:40:29.842Z,11.40
2019-05-14T08:42:58.211Z,11.50
2019-05-14T08:45:24.118Z,11.50
2019-05-14T08:47:50.257Z,11.50
2019-05-14T08:50:18.728Z,11.50
2019-05-14T08:52:44.935Z,11.60
2019-05-14T08:55:14.026Z,11.70
2019-05-14T08:57:39.261Z,11.80
2019-05-14T09:00:13.545Z,12.00
2019-05-14T09:02:35.113Z,12.20
2019-05-14T09:05:03.909Z,12.50
2019-05-14T09:07:29.433Z,12.60
2019-05-14T09:09:55.788Z,12.80
2019-05-14T09:12:21.860Z,12.90
2019-05-14T09:14:48.436Z,12.70
2019-05-14T09:17:15.041Z,12.50
2019-05-14T09:19:57.745Z,12.30
2019-05-14T09:22:09.689Z,12.10
2019-05-14T09:24:38.435Z,12.00
2019-05-14T09:27:05.591Z,11.90
2019-05-14T09:29:31.820Z,11.90
2019-05-14T09:31:58.965Z,11.90
2019-05-14T09:34:25.427Z,12.00
2019-05-14T09:36:51.503Z,12.30
2019-05-14T09:39:18.810Z,12.70
2019-05-14T09:41:45.120Z,13.00
2019-05-14T09:44:11.308Z,13.10
2019-05-14T09:46:38.526Z,12.70
2019-05-14T09:49:04.912Z,12.50
2019-05-14T09:51:31.579Z,12.40
2019-05-14T09:53:59.002Z,12.30
2019-05-14T09:56:25.349Z,12.10
2019-05-14T09:58:51.399Z,12.00
2019-05-14T10:01:19.380Z,11.90
2019-05-14T10:03:45.483Z,12.20
2019-05-14T10:06:11.714Z,12.70
2019-05-14T10:08:39.035Z,13.00
2019-05-14T10:11:05.569Z,13.00
2019-05-14T10:13:31.751Z,12.70
2019-05-14T10:15:58.889Z,12.60
2019-05-14T10:18:25.428Z,12.50
2019-05-14T10:20:51.611Z,12.70
2019-05-14T10:23:18.958Z,12.90
2019-05-14T10:25:45.278Z,12.80
2019-05-14T10:28:11.468Z,12.80
2019-05-14T10:30:37.618Z,12.70
2019-05-14T10:33:09.656Z,12.90
2019-05-14T10:35:31.991Z,13.00
2019-05-14T10:37:59.823Z,13.20
2019-05-14T10:40:29.042Z,13.20
2019-05-14T10:42:54.275Z,12.90
2019-05-14T10:45:20.558Z,12.70
2019-05-14T10:47:49.265Z,12.90
2019-05-14T10:50:14.923Z,13.40
2019-05-14T10:52:40.991Z,13.70
2019-05-14T10:55:08.017Z,13.70
2019-05-14T10:57:34.259Z,13.70
2019-05-14T11:00:00.618Z,13.50
2019-05-14T11:02:29.102Z,13.30
2019-05-14T11:04:55.065Z,13.30
2019-05-14T11:07:21.274Z,13.40
2019-05-14T11:09:48.599Z,13.80
2019-05-14T11:12:14.855Z,13.90
2019-05-14T11:14:40.963Z,13.90
2019-05-14T11:17:11.393Z,14.10
2019-05-14T11:19:35.192Z,14.10
2019-05-14T11:22:01.275Z,14.10
2019-05-14T11:24:29.567Z,14.30
2019-05-14T11:26:55.657Z,14.40
2019-05-14T11:29:21.866Z,14.40
2019-05-14T11:31:49.746Z,14.40
2019-05-14T11:34:20.017Z,14.40
2019-05-14T11:36:46.087Z,14.20
2019-05-14T11:39:12.272Z,13.90
2019-05-14T11:41:39.019Z,13.80
2019-05-14T11:44:05.781Z,13.60
2019-05-14T11:46:44.442Z,13.40
2019-05-14T11:48:59.822Z,13.70
2019-05-14T11:51:56.209Z,14.00
2019-05-14T11:53:53.874Z,14.30
2019-05-14T11:56:19.936Z,14.60
2019-05-14T11:58:46.372Z,14.40
2019-05-14T12:01:12.757Z,14.10
2019-05-14T12:03:39.579Z,14.20
2019-05-14T12:06:05.885Z,14.30
2019-05-14T12:08:32.102Z,14.50
2019-05-14T12:10:59.285Z,14.50
2019-05-14T12:13:29.845Z,14.40
2019-05-14T12:15:53.432Z,14.50
2019-05-14T12:18:19.751Z,14.20
2019-05-14T12:20:46.002Z,14.00
2019-05-14T12:23:12.180Z,13.90
2019-05-14T12:25:38.286Z,14.00
2019-05-14T12:28:04.467Z,14.10
2019-05-14T12:30:30.704Z,14.40
2019-05-14T12:32:58.994Z,14.40
2019-05-14T12:35:24.845Z,14.20
2019-05-14T12:37:50.929Z,13.90
2019-05-14T12:40:19.381Z,13.80
2019-05-14T12:42:45.416Z,13.90
2019-05-14T12:45:11.897Z,14.30
2019-05-14T12:47:38.489Z,14.50
2019-05-14T12:50:06.439Z,14.30
2019-05-14T12:52:32.688Z,13.90
2019-05-14T12:54:59.793Z,13.70
2019-05-14T12:57:26.252Z,13.80
2019-05-14T12:59:52.288Z,13.80
2019-05-14T13:02:18.886Z,14.00
2019-05-14T13:04:45.238Z,14.20
2019-05-14T13:07:11.589Z,14.20
2019-05-14T13:09:38.528Z,14.20
2019-05-14T13:12:04.984Z,14.30
2019-05-14T13:14:31.209Z,14.20
2019-05-14T13:16:59.588Z,14.10
2019-05-14T13:19:25.237Z,14.20
2019-05-14T13:22:08.662Z,14.30
2019-05-14T13:24:19.321Z,14.30
2019-05-14T13:26:45.416Z,14.10
2019-05-14T13:29:11.602Z,14.00
2019-05-14T13:31:37.773Z,14.00
2019-05-14T13:34:03.947Z,14.20
2019-05-14T13:36:30.071Z,14.30
2019-05-14T13:38:59.240Z,14.40
2019-05-14T13:41:24.452Z,14.30
2019-05-14T13:43:50.828Z,14.10
2019-05-14T13:46:18.962Z,13.90
2019-05-14T13:48:45.203Z,14.00
2019-05-14T13:51:11.283Z,14.10
2019-05-14T13:53:39.116Z,13.90
2019-05-14T13:56:05.331Z,14.00
2019-05-14T13:58:31.496Z,13.90
2019-05-14T14:00:59.103Z,13.80
2019-05-14T14:03:28.939Z,13.80
2019-05-14T14:05:53.804Z,13.80
2019-05-14T14:08:19.935Z,13.90
2019-05-14T14:10:52.319Z,14.00
2019-05-14T14:13:14.255Z,14.20
2019-05-14T14:15:40.478Z,14.10
2019-05-14T14:18:06.631Z,14.00
2019-05-14T14:20:32.895Z,13.90
2019-05-14T14:23:09.165Z,13.70
2019-05-14T14:25:29.555Z,13.80
2019-05-14T14:28:00.296Z,13.90
2019-05-14T14:30:25.150Z,13.90
2019-05-14T14:32:51.241Z,14.10
2019-05-14T14:35:22.699Z,14.20
2019-05-14T14:37:45.522Z,14.10
2019-05-14T14:40:12.031Z,14.10
2019-05-14T14:42:40.074Z,14.00
2019-05-14T14:45:08.614Z,13.80
2019-05-14T14:47:34.907Z,13.70
2019-05-14T14:50:01.090Z,13.60
2019-05-14T14:52:29.220Z,13.70
2019-05-14T14:54:55.658Z,13.70
2019-05-14T14:57:22.117Z,13.70
2019-05-14T14:59:48.650Z,13.80
2019-05-14T15:02:15.044Z,13.80
2019-05-14T15:04:41.188Z,13.80
2019-05-14T15:07:09.641Z,13.70
2019-05-14T15:09:35.242Z,13.60
2019-05-14T15:12:01.551Z,13.40
2019-05-14T15:14:29.746Z,13.40
2019-05-14T15:16:55.604Z,13.50
2019-05-14T15:19:21.720Z,13.70
2019-05-14T15:21:48.943Z,13.90
2019-05-14T15:24:15.827Z,14.00
2019-05-14T15:26:42.380Z,13.90
2019-05-14T15:29:09.954Z,13.70
2019-05-14T15:31:38.547Z,13.60
2019-05-14T15:34:04.397Z,13.60
2019-05-14T15:36:30.462Z,13.70
2019-05-14T15:38:58.940Z,13.80
2019-05-14T15:41:24.747Z,13.60
2019-05-14T15:43:51.059Z,13.40
2019-05-14T15:46:18.513Z,13.40
2019-05-14T15:48:44.847Z,13.40
2019-05-14T15:51:14.979Z,13.50
2019-05-14T15:53:38.904Z,13.60
2019-05-14T15:56:05.200Z,13.70
2019-05-14T15:58:31.368Z,13.80
2019-05-14T16:01:00.813Z,13.90
2019-05-14T16:03:27.890Z,13.80
2019-05-14T16:05:53.671Z,13.70
2019-05-14T16:08:22.725Z,13.60
2019-05-14T16:10:48.368Z,13.70
2019-05-14T16:13:14.468Z,13.80
2019-05-14T16:15:40.731Z,13.80
2019-05-14T16:18:14.839Z,13.80
2019-05-14T16:20:34.934Z,13.80
2019-05-14T16:23:00.969Z,13.50
2019-05-14T16:25:28.635Z,13.40
2019-05-14T16:27:55.068Z,13.30
2019-05-14T16:30:21.246Z,13.00
2019-05-14T16:32:48.610Z,12.90
2019-05-14T16:35:14.793Z,12.80
2019-05-14T16:37:41.286Z,12.70
2019-05-14T16:40:07.922Z,12.70
2019-05-14T16:42:34.931Z,12.90
2019-05-14T16:45:01.411Z,12.90
2019-05-14T16:47:28.623Z,12.90
2019-05-14T16:49:54.928Z,13.00
2019-05-14T16:52:21.407Z,13.10
2019-05-14T16:54:48.905Z,13.30
2019-05-14T16:57:18.392Z,13.30
2019-05-14T16:59:43.867Z,13.30
2019-05-14T17:02:10.097Z,13.30
2019-05-14T17:04:38.581Z,13.30
2019-05-14T17:07:04.659Z,13.20
2019-05-14T17:09:31.308Z,12.90
2019-05-14T17:11:58.967Z,12.70
2019-05-14T17:14:25.704Z,12.60
2019-05-14T17:16:52.147Z,12.60
2019-05-14T17:19:19.314Z,12.50
2019-05-14T17:21:45.740Z,12.40
2019-05-14T17:24:12.155Z,12.30
2019-05-14T17:26:38.928Z,12.20
2019-05-14T17:29:05.198Z,12.30
2019-05-14T17:31:31.320Z,12.30
2019-05-14T17:33:58.444Z,12.40
2019-05-14T17:36:24.651Z,12.40
2019-05-14T17:38:51.174Z,12.40
2019-05-14T17:41:19.449Z,12.50
2019-05-14T17:43:45.318Z,12.50
2019-05-14T17:46:11.526Z,12.40
2019-05-14T17:48:39.110Z,12.30
2019-05-14T17:51:05.447Z,12.30
2019-05-14T17:53:31.995Z,12.20
2019-05-14T17:55:59.297Z,12.20
2019-05-14T17:58:25.714Z,12.20
2019-05-14T18:00:51.960Z,12.10
2019-05-14T18:03:18.531Z,12.10
2019-05-14T18:05:44.634Z,12.10
2019-05-14T18:08:10.853Z,12.00
2019-05-14T18:10:39.190Z,11.90
2019-05-14T18:13:05.131Z,11.90
2019-05-14T18:15:31.484Z,11.90
2019-05-14T18:17:58.862Z,11.80
2019-05-14T18:20:25.361Z,11.80
2019-05-14T18:22:51.500Z,11.70
2019-05-14T18:25:18.366Z,11.60
2019-05-14T18:27:44.778Z,11.50
2019-05-14T18:30:11.467Z,11.40
2019-05-14T18:32:37.698Z,11.40
2019-05-14T18:35:04.091Z,11.40
2019-05-14T18:37:30.190Z,11.40
2019-05-14T18:39:58.648Z,11.30
2019-05-14T18:42:24.313Z,11.20
2019-05-14T18:44:50.512Z,11.20
2019-05-14T18:47:19.355Z,11.20
2019-05-14T18:49:44.745Z,11.20
2019-05-14T18:52:12.230Z,11.20
2019-05-14T18:54:39.622Z,11.10
2019-05-14T18:57:11.306Z,11.00
2019-05-14T18:59:33.965Z,11.00
2019-05-14T19:02:00.169Z,11.00
2019-05-14T19:04:27.981Z,10.90
2019-05-14T19:06:55.357Z,10.80
2019-05-14T19:09:21.567Z,10.70
2019-05-14T19:11:48.262Z,10.70
2019-05-14T19:14:14.895Z,10.70
2019-05-14T19:16:41.099Z,10.60
2019-05-14T19:19:08.050Z,10.50
2019-05-14T19:21:34.306Z,10.50
2019-05-14T19:24:00.505Z,10.40
2019-05-14T19:26:34.314Z,10.40
2019-05-14T19:28:54.831Z,10.40
2019-05-14T19:31:22.101Z,10.40
2019-05-14T19:33:48.756Z,10.40
2019-05-14T19:36:15.234Z,10.40
2019-05-14T19:38:41.389Z,10.40
2019-05-14T19:41:08.613Z,10.30
2019-05-14T19:43:34.941Z,10.30
2019-05-14T19:46:02.420Z,10.20
2019-05-14T19:48:32.686Z,10.20
2019-05-14T19:53:52.318Z,10.20
2019-05-14T19:56:17.738Z,10.20
2019-05-14T19:58:43.948Z,10.20
2019-05-14T20:01:10.043Z,10.10
2019-05-14T20:03:36.214Z,10.10
2019-05-14T20:06:02.544Z,10.10
2019-05-14T20:08:29.588Z,10.00
2019-05-14T20:10:55.899Z,10.00
2019-05-14T20:13:21.982Z,10.00
2019-05-14T20:15:48.842Z,10.00
2019-05-14T20:18:15.102Z,10.00
2019-05-14T20:20:41.611Z,9.90
2019-05-14T20:23:07.691Z,9.90
2019-05-14T20:25:33.875Z,9.90
2019-05-14T20:28:00.068Z,9.80
2019-05-14T20:30:29.234Z,9.70
2019-05-14T20:32:54.416Z,9.70
2019-05-14T20:35:30.813Z,9.60
2019-05-14T20:37:49.355Z,9.60
2019-05-14T20:40:15.734Z,9.60
2019-05-14T20:42:42.149Z,9.60
2019-05-14T20:45:08.851Z,9.50
2019-05-14T20:47:34.972Z,9.50
2019-05-14T20:50:01.470Z,9.40
2019-05-14T20:52:28.441Z,9.40
2019-05-14T20:54:55.361Z,9.30
2019-05-14T20:57:26.878Z,9.30
2019-05-14T20:59:49.763Z,9.30
2019-05-14T21:02:18.155Z,9.30
2019-05-14T21:04:44.353Z,9.20
2019-05-14T21:07:10.489Z,9.20
2019-05-14T21:09:38.645Z,9.10
2019-05-14T21:12:04.541Z,9.10
2019-05-14T21:14:30.654Z,9.00
2019-05-14T21:16:56.852Z,9.00
2019-05-14T21:19:22.934Z,8.90
2019-05-14T21:21:49.284Z,8.90
2019-05-14T21:24:15.501Z,8.90
2019-05-14T21:26:41.666Z,8.90
2019-05-14T21:29:07.974Z,8.90
2019-05-14T21:31:34.182Z,8.90
2019-05-14T21:34:00.253Z,8.90
2019-05-14T21:36:28.410Z,8.80
2019-05-14T21:38:54.449Z,8.80
2019-05-14T21:41:20.716Z,8.80
2019-05-14T21:43:49.254Z,8.80
2019-05-14T21:46:15.444Z,8.80
2019-05-14T21:48:41.503Z,8.70
2019-05-14T21:51:09.365Z,8.60
2019-05-14T21:53:40.852Z,8.70
2019-05-14T21:56:04.258Z,8.60
2019-05-14T21:58:30.428Z,8.50
2019-05-14T22:00:59.215Z,8.50
2019-05-14T22:03:25.602Z,8.40
2019-05-14T22:05:54.144Z,8.40
2019-05-14T22:08:20.420Z,8.30
2019-05-14T22:10:48.880Z,8.30
2019-05-14T22:13:15.525Z,8.20
2019-05-14T22:15:41.971Z,8.20
2019-05-14T22:18:17.469Z,8.10
2019-05-14T22:20:38.567Z,8.10
2019-05-14T22:23:10.595Z,8.10
2019-05-14T22:25:39.175Z,8.10
2019-05-14T22:28:12.337Z,8.10
2019-05-14T22:30:34.127Z,8.10
2019-05-14T22:33:00.788Z,8.10
2019-05-14T22:35:30.815Z,8.10
2019-05-14T22:37:55.823Z,8.00
2019-05-14T22:40:22.061Z,7.90
2019-05-14T22:42:48.905Z,8.00
2019-05-14T22:45:15.298Z,8.00
2019-05-14T22:47:41.473Z,7.90
2019-05-14T22:50:08.946Z,7.90
2019-05-14T22:52:35.327Z,7.90
2019-05-14T22:55:01.562Z,7.90
2019-05-14T22:57:30.870Z,7.90
2019-05-14T22:59:57.988Z,7.90
2019-05-14T23:02:24.984Z,7.90
2019-05-14T23:04:51.073Z,7.90
2019-05-14T23:07:18.964Z,7.90
2019-05-14T23:09:45.465Z,7.80
2019-05-14T23:12:12.352Z,7.80
2019-05-14T23:14:39.085Z,7.80
2019-05-14T23:17:05.360Z,7.70
2019-05-14T23:19:33.451Z,7.70
2019-05-14T23:21:59.684Z,7.70
2019-05-14T23:24:28.315Z,7.70
2019-05-14T23:26:54.200Z,7.60
2019-05-14T23:29:20.364Z,7.60
2019-05-14T23:31:48.687Z,7.60
2019-05-14T23:34:14.619Z,7.50
2019-05-14T23:36:40.898Z,7.50
2019-05-14T23:39:08.780Z,7.50
2019-05-14T23:41:38.171Z,7.50
2019-05-14T23:44:03.588Z,7.30
2019-05-14T23:46:29.989Z,7.30
2019-05-14T23:48:56.256Z,7.30
2019-05-14T23:51:22.455Z,7.30
2019-05-14T23:53:48.719Z,7.20
2019-05-14T23:56:14.922Z,7.10
2019-05-14T23:58:54.174Z,7.10
